Gernot Baumgartner

Scout - Austria Wien
17 Jul 2027
Samstag
Verarbeitung

Persönlichkeit

Anpassungsfähigkeit (14) Ehrgeiz (6) Kontroverse (19) Loyalität (6) Druck (9) Professionalität (7) Fairness (9) Temperament (11)

Profil

Trainerstil Demokratisch
Lizenz Nationale B
Entschlossenheit 9
Menschenführung 5
Motivation 13
Disziplin 10
Arbeitszufriedenheit
96%
Ermüdung
0%
Rolle Scout
Gehalt 20.0K p/W
Vertrag 14.03.2029

Leistung

Verhalten Gut
Trainingseffektivität
30%
Spielerentwicklung
50%
Verletzungsprävention
55%
Taktische Umsetzung
35%

Letzte Ereignisse

Nahm an einer Scouting-Besprechung teil jetzt
Nahm an einer Scouting-Besprechung teil jetzt
Nahm an einer Scouting-Besprechung teil jetzt
Empfahl ein Transferziel jetzt
Empfahl ein Transferziel jetzt
Empfahl ein Transferziel jetzt
Empfahl ein Transferziel 7T her
Legte dem Vorstand ein Dossier vor 7T her

Aktuell beobachtet

179
Spieler Verein Status Fähigkeit Vertrauen Beobachtet Zuletzt beobachtet Letzte Stimme
Marlon Mustapha Altach Verloren 112 / 106 76% 1 28.06.2027 Befürworten
Heinz Lazaro Mattersburg Aktiv 111 / 125 76% 1 21.06.2027 Befürworten
Tommaso Cecotti Carpi Verloren 97 / 108 40% 2 14.06.2027 -
Simone Kosijer Triestina Aktiv 92 / 104 40% 1 14.06.2027 -
Anthony Patterson Wrexham Aktiv 138 / 121 40% 2 01.06.2027 -
Will Dennis Milton Keynes Dons Verloren 110 / 107 40% 2 01.06.2027 -
Caio Vidal FC Copenhagen Verhandlung 128 / 129 63% 1 01.06.2027 Befürworten
Konstantin Tyukavin Arsenal Aktiv 132 / 133 66% 1 01.06.2027 Befürworten
Gonzalo Plata Rosenborg Aktiv 133 / 134 66% 1 01.06.2027 Befürworten
Andrea Carboni Monza Aktiv 129 / 136 40% 2 29.05.2027 -
Bobby Thomas Coventry City Aktiv 136 / 122 40% 2 29.05.2027 -
Ben Chrisene Sheffield Wednesday Aktiv 120 / 123 40% 1 29.05.2027 -
Jaydee Canvot Liverpool Aktiv 130 / 131 40% 2 28.05.2027 -
Jamie Wähling Hibernians Aktiv 83 / 95 40% 1 28.05.2027 -
Jonathan De Irastorza Levante Aktiv 122 / 117 40% 1 28.05.2027 -
Ronan Kpakio Brentford Aktiv 116 / 127 40% 2 27.05.2027 -
Joshua Oluwayemi Walsall Aktiv 103 / 87 40% 3 26.05.2027 -
Murphy Cooper Plymouth Argyle Aktiv 115 / 120 40% 2 26.05.2027 -
Vladan Kovačević Norwich City Aktiv 119 / 128 40% 1 26.05.2027 -
Gladson Sulemana Liberty Professionals Aktiv 96 / 113 40% 1 26.05.2027 -
Joane Gadou Köln Aktiv 125 / 141 40% 1 26.05.2027 -
Pietro Reggiori Pro Patria Aktiv 93 / 95 40% 2 25.05.2027 -
Sam Curtis Swindon Town Aktiv 100 / 117 40% 2 25.05.2027 -
George Wickens Lincoln City Aktiv 119 / 113 40% 2 25.05.2027 -
Jofre Torrents Ajax Aktiv 121 / 127 40% 1 25.05.2027 -
Matteo Rizzo Cosenza Aktiv 106 / 109 40% 1 25.05.2027 -
Myles Roberts Doncaster Rovers Aktiv 105 / 107 40% 4 24.05.2027 -
Carl Rushworth Coventry City Aktiv 138 / 136 40% 4 24.05.2027 -
Corey Addai Stockport County Aktiv 113 / 100 40% 2 24.05.2027 -
Ezra Mayers West Ham United Aktiv 122 / 124 40% 2 23.05.2027 -
Josh Keeley Luton Town Aktiv 128 / 127 40% 2 23.05.2027 -
Gianluca Saro Foggia Aktiv 110 / 103 40% 1 23.05.2027 -
Riyad Idrissi Torino Aktiv 123 / 118 40% 1 23.05.2027 -
Killian Cahill Leyton Orient Aktiv 101 / 101 40% 4 22.05.2027 -
Viktor Johansson Stoke City Aktiv 131 / 130 40% 2 22.05.2027 -
Kostantis Tzolakis Hull City Aktiv 144 / 135 40% 1 22.05.2027 -
Samuele Angori Pisa Aktiv 137 / 131 40% 1 22.05.2027 -
Luke McNally Bristol City Aktiv 132 / 138 40% 1 22.05.2027 -
Abraham Paintsil Hasaacas Aktiv 87 / 104 40% 2 21.05.2027 -
Martim Cunha Porto Aktiv 101 / 112 40% 1 21.05.2027 -
T-Jay Parfitt Cardiff City Aktiv 91 / 107 40% 1 20.05.2027 -
Noël Aséko Eintracht Frankfurt Aktiv 122 / 143 40% 1 20.05.2027 -
Daniel Iversen Preston Aktiv 127 / 136 40% 4 19.05.2027 Beobachten
Elia Summa Picerno Aktiv 114 / 108 40% 1 19.05.2027 -
Alen Sherri Cagliari Aktiv 122 / 121 40% 1 19.05.2027 -
Darlvin Yeboah Bechem United Aktiv 85 / 91 40% 1 19.05.2027 -
Tiziano Dornell Almagro Aktiv 108 / 122 40% 1 19.05.2027 -
Adama Goïta Remo Stars Aktiv 90 / 92 40% 1 19.05.2027 -
Jordan Amissah Burton Albion Aktiv 108 / 106 40% 4 17.05.2027 -
Balázs Tóth Blackburn Rovers Aktiv 131 / 117 40% 3 17.05.2027 Beobachten
Mohammed Galadima Aswan Aktiv 103 / 112 40% 2 17.05.2027 -
Serge Daura Dynamo Douala Aktiv 104 / 101 40% 2 16.05.2027 -
Tommaso Cucchietti Potenza Aktiv 99 / 106 40% 1 16.05.2027 -
Riccardo Braschi Thun Aktiv 97 / 97 40% 1 16.05.2027 -
Mattia Del Favero Pro Vercelli Aktiv 99 / 102 40% 1 14.05.2027 -
Radek Vítek Middlesbrough Aktiv 134 / 138 40% 1 14.05.2027 -
Zach Hemming Chesterfield Aktiv 105 / 100 40% 2 13.05.2027 -
Elia Boseggia Novara Aktiv 113 / 120 40% 1 13.05.2027 -
Gonçalo Oliveira Benfica Aktiv 107 / 107 40% 1 13.05.2027 -
Pharell Hensel VfL Wolfsburg Aktiv 105 / 120 40% 1 13.05.2027 -
Filip Marschall Stevenage Aktiv 114 / 111 40% 3 11.05.2027 -
Sam Waller Harrogate Town Aktiv 90 / 85 40% 1 11.05.2027 -
Arijanet Murić Sassuolo Aktiv 137 / 147 40% 1 10.05.2027 -
Mathew Hudson Oldham Athletic Aktiv 96 / 111 40% 1 10.05.2027 -
Leon Grgić Sturm Graz Aktiv 118 / 126 40% 4 09.05.2027 -
Evidence Billiat Ajax Cape Town Verloren 120 / 102 40% 2 09.05.2027 -
Sindre Walle Egeli Nottingham Forest Aktiv 128 / 140 40% 1 09.05.2027 -
Mohamed El Amine Ramdaoui USM Alger Aktiv 98 / 99 40% 1 09.05.2027 -
Luke Southwood Bristol Rovers Aktiv 111 / 93 40% 1 06.05.2027 -
Will Mannion Charlton Athletic Aktiv 118 / 116 40% 3 05.05.2027 -
Christoph Klarer Birmingham Aktiv 131 / 117 40% 1 05.05.2027 -
Heorhii Yermakov Metalist Aktiv 115 / 120 40% 1 05.05.2027 -
Samuele Vitale Ascoli Aktiv 108 / 104 40% 1 05.05.2027 -
Borna Knezović Casarano Aktiv 110 / 115 40% 2 04.05.2027 -
Valerio Boffelli Cavese Aktiv 104 / 102 40% 1 04.05.2027 -
Matteo Sorzi Carpi Aktiv 103 / 112 40% 1 04.05.2027 -
Ezekiel Kwame Alladoh Sheffield United Aktiv 120 / 124 40% 1 04.05.2027 -
Taye Ashby-Hammond Cheltenham Town Aktiv 102 / 102 40% 1 30.04.2027 -
Nathan Trott Cardiff City Aktiv 128 / 112 40% 1 29.04.2027 -
Matvii Burenko Vorskla Aktiv 77 / 80 40% 3 28.04.2027 -
Sunusi Audu New Edubiase United Aktiv 90 / 75 40% 1 28.04.2027 -
Riquelme Thompson-Jones Shrewsbury Town Aktiv 100 / 115 40% 2 27.04.2027 -
Riley Owen Wycombe Wanderers Aktiv 104 / 109 40% 1 27.04.2027 -
Adulai Embaló Virtus Entella Aktiv 87 / 104 40% 2 26.04.2027 -
Michael Cooper Sheffield United Aktiv 134 / 119 40% 1 26.04.2027 -
Dylan Lawlor Cardiff City Aktiv 110 / 117 40% 1 26.04.2027 -
Mathis Jangeal Famalicao Aktiv 92 / 103 40% 1 26.04.2027 -
Edmund Inusah WAFA Aktiv 81 / 89 40% 1 24.04.2027 -
George Brown Sheffield Wednesday Aktiv 106 / 95 40% 3 23.04.2027 -
Yannik Wagner Heidenheim Aktiv 97 / 102 40% 2 23.04.2027 -
Iwan Morgan Grimsby Town Aktiv 117 / 113 40% 2 23.04.2027 -
Fran Vieites Exeter City Aktiv 127 / 125 40% 1 23.04.2027 -
Nathan Bishop AFC Wimbledon Aktiv 108 / 111 40% 1 23.04.2027 -
Luis Engelns TSG Hoffenheim Aktiv 108 / 128 40% 1 22.04.2027 -
Lorenzo Palmisani Frosinone Aktiv 128 / 128 40% 1 20.04.2027 -
Osagie Onisodumeya Al Gaish Aktiv 98 / 102 40% 1 20.04.2027 -
Miloš Jovičić Zabbar St. Patrick Aktiv 96 / 85 40% 4 18.04.2027 -
Giuseppe Coppola Picerno Aktiv 91 / 112 40% 1 18.04.2027 -
Markus Jensen Nacional Aktiv 110 / 114 40% 1 15.04.2027 -
Chineme Chinonso Ikorodu City Aktiv 93 / 84 40% 4 14.04.2027 -
Oumar Camara Vitoria Guimaraes Aktiv 115 / 143 40% 2 14.04.2027 -
Ousmane Diakité West Bromwich Albion Aktiv 124 / 119 40% 1 14.04.2027 -
Max Bird Birmingham Aktiv 135 / 127 40% 1 14.04.2027 -
Sidiki Chérif Coventry City Aktiv 125 / 129 40% 2 13.04.2027 -
Neco Williams Nottingham Forest Aktiv 147 / 152 40% 1 12.04.2027 -
Callum Doyle Wrexham Aktiv 126 / 138 40% 1 12.04.2027 -
Alagie Wally Veres Aktiv 90 / 85 40% 1 10.04.2027 -
Alfie Doughty Millwall Aktiv 134 / 131 40% 1 10.04.2027 -
James Morris Leyton Orient Aktiv 122 / 119 40% 2 09.04.2027 -
Kristoffer Lund Birmingham Aktiv 132 / 138 40% 1 09.04.2027 -
Adam Randell Bristol City Aktiv 129 / 117 40% 2 08.04.2027 -
Teden Mengi Luton Town Aktiv 119 / 131 40% 1 08.04.2027 -
Yuval Ranon Vitesse Aktiv 93 / 92 40% 1 06.04.2027 -
Jonás Luna Wanderers Aktiv 115 / 132 40% 1 06.04.2027 -
Will Lankshear Middlesbrough Aktiv 126 / 127 40% 1 05.04.2027 -
Lorenzo De Leo Renate Aktiv 100 / 90 40% 1 05.04.2027 -
Max Johnston Derby County Aktiv 127 / 120 40% 1 05.04.2027 -
Babis Kostoulas Aston Villa Aktiv 132 / 140 40% 3 03.04.2027 -
Ilario Monterisi Frosinone Aktiv 135 / 127 40% 1 03.04.2027 -
Terry Devlin Portsmouth Aktiv 122 / 129 40% 1 03.04.2027 -
Ben Nelson Leicester City Aktiv 134 / 136 40% 1 03.04.2027 -
Jeffrey Adjei Wa All Stars Aktiv 86 / 100 40% 1 01.04.2027 -
Emmanuel Nweke Smouha Aktiv 89 / 120 40% 1 01.04.2027 -
Tyrell Malacia Derby County Aktiv 135 / 133 40% 1 01.04.2027 -
Archie Collins Peterborough United Aktiv 117 / 112 40% 1 01.04.2027 -
Yannik Engelhardt SC Freiburg Aktiv 130 / 120 40% 1 30.03.2027 -
Oliver Skipp Leicester City Aktiv 127 / 139 40% 1 30.03.2027 -
Luis Fernando Santa Clara Aktiv 100 / 98 40% 2 28.03.2027 -
Luke Baartman Bidvest Wits Aktiv 113 / 125 40% 2 27.03.2027 -
Yll Gashi Bayern Munich Aktiv 93 / 102 40% 1 26.03.2027 -
Oliver Fischer Borussia Dortmund Aktiv 86 / 88 40% 1 26.03.2027 -
Volodymyr Mulyk Kryvbas Aktiv 78 / 76 40% 1 26.03.2027 -
Paris Brunner Monaco Aktiv 109 / 117 40% 1 24.03.2027 -
Iaia Manco Danfa Borussia Mönchengladbach Aktiv 95 / 121 40% 1 24.03.2027 -
Kirill Cheburakov Rostov Aktiv 77 / 95 40% 1 23.03.2027 -
Abdoulaye Kanté Mattersburg Aktiv 98 / 105 40% 1 22.03.2027 -
Xavier Biscayzacú Sporting CP Aktiv 123 / 140 40% 1 22.03.2027 -
Dilan Neves Benfica Aktiv 75 / 85 40% 1 21.03.2027 -
Dramane Kamagaté USM Alger Aktiv 104 / 102 40% 1 20.03.2027 -
Víctor Guzmán Sporting CP Aktiv 98 / 113 40% 1 18.03.2027 -
Roberto Iliev Slavia Sofia Aktiv 91 / 100 40% 1 17.03.2027 -
Maurits Kjærgaard Red Bull Salzburg Aktiv 134 / 125 40% 2 31.12.2026 Mehr Infos nötig
Aljoša Matko Ujpest Aktiv 124 / 118 40% 3 31.12.2026 -
Frans Krätzig Red Bull Salzburg Aktiv 125 / 130 40% 2 23.12.2026 -
Kilian Fischer Mainz 05 Aktiv 131 / 115 40% 2 21.12.2026 -
Jordy Makengo SC Freiburg Aktiv 128 / 119 40% 1 21.12.2026 -
Danil Glebov Dinamo Moscow Aktiv 129 / 127 40% 1 21.12.2026 -
Christian Krasnodar Aktiv 133 / 129 40% 1 20.12.2026 -
Dardan Shabanhaxhaj Rubin Aktiv 116 / 111 40% 2 19.12.2026 -
Yorbe Vertessen Red Bull Salzburg Aktiv 132 / 125 40% 2 19.12.2026 Mehr Infos nötig
Max Finkgräfe RB Leipzig Aktiv 121 / 115 40% 2 15.12.2026 -
Suleiman Camara Slovan Bratislava Aktiv 119 / 105 40% 3 14.12.2026 -
Petter Nosa Dahl Borussia Mönchengladbach Aktiv 126 / 111 40% 2 14.12.2026 -
Umeh Emmanuel Fatih Karagumruk Aktiv 106 / 98 40% 1 14.12.2026 -
Petar Stanić Ludogorets Aktiv 134 / 126 40% 3 13.12.2026 Beobachten
Mauro Rodrigues Botev Plovdiv Aktiv 108 / 125 40% 1 13.12.2026 -
Nuno Santos Mamelodi Sundowns Aktiv 130 / 133 40% 1 13.12.2026 -
Reda Khadra Qarabag Aktiv 130 / 130 40% 3 10.12.2026 -
Thulani Mphela Free State Stars Aktiv 119 / 120 40% 1 10.12.2026 -
Fabian Rieder FC Augsburg Aktiv 132 / 139 40% 2 02.12.2026 -
Jens Petter Hauge Bodo/Glimt Aktiv 144 / 130 40% 2 27.11.2026 -
Daniel Kyerewaa Reading Aktiv 109 / 117 40% 1 27.11.2026 -
Fraser Murray Wigan Athletic Aktiv 119 / 112 40% 1 04.11.2026 -
Relebohile Mofokeng Orlando Pirates Aktiv 110 / 118 40% 1 18.10.2026 -
Ludovit Reis Werder Bremen Aktiv 128 / 116 40% 2 14.10.2026 -
Ammar Ramadan DAC Dunajska Streda Aktiv 120 / 134 40% 2 11.10.2026 -
Karim Adeyemi Barcelona Aktiv 153 / 148 40% 1 11.10.2026 -
Nicolas Cozza VfL Wolfsburg Aktiv 115 / 126 40% 1 05.10.2026 -
Caolan Boyd-Munce Wycombe Wanderers Aktiv 113 / 117 40% 1 05.10.2026 -
Aljoscha Kemlein Union Berlin Aktiv 128 / 137 40% 3 04.10.2026 -
Tim Oermann Bayer Leverkusen Aktiv 122 / 123 40% 1 02.10.2026 -
Benjamin Böckle Red Bull Salzburg Aktiv 117 / 115 40% 1 28.09.2026 -
Kamogelo Sebelebele Orlando Pirates Aktiv 110 / 117 40% 1 27.09.2026 -
Rihito Yamamoto SC Freiburg Aktiv 117 / 112 40% 2 26.09.2026 -
Thulani Phiri Platinum Stars Aktiv 107 / 124 40% 1 26.09.2026 -
Esequiel Barco Spartak Moscow Aktiv 136 / 142 40% 1 24.09.2026 -
Michael Sollbauer SV Ried Aktiv 113 / 121 76% 1 31.08.2026 Befürworten
Domnan Panse Plateau United Aktiv 72 / 86 40% 1 01.08.2026 -
Leon Klanac Bayern Munich Aktiv 82 / 92 40% 1 01.08.2026 -